Strona główna
METAR-TAF:

METAR-TAF

Lotnisko :

Port lotniczy Yap

Yap, Mikronezja

Szerokość geograficzna: 09-29N, Długość geograficzna: 138-05E, wysokość: 28 m

Aktualna obserwacja pogody

Raport powstał 22 minut temu, godzina 10:52 UTC
Wiatr 3 kt z kierunków zmiennych
Temperatura 27°C
Wilgotność 89%
Ciśnienie 1010 hPa
Widzialność: 19.3 km
Mało chmury na wysokości 1600 ft
Rozproszone chmury na wysokości 13000 ft
Przerywane chmury na wysokości 30000 ft

METAR: PTYA 171052Z VRB03KT 12SM FEW016 SCT130 BKN300 27/25 A2983 RMK SLP101 T02720252

czas: 21:14 (11:14 UTC)

Prognoza

Raport powstał 5 godziny i 54 minut temu, godzina 05:20 UTC
Prognoza ważna od 17 godzina 06 UTC do 18 godzina 06 UTC
Wiatr 10 kt od wschodnio-północny wschód
Widzialność: 10 km
Rozproszone chmury na wysokości 1600 ft
Przerywane chmury na wysokości 12000 ft

TAF: PTYA 170520Z 1706/1806 06010KT P6SM SCT016 BKN120

Obserwacja i prognoza pogody dla ponad 4000 lotnisk (raport METAR i TAF).

Dostępne stacje oznaczono żółtymi i czerwonymi punktami na mapie.

Najedź kursorem aby zobaczyć nazwę stacji.

Kliknij aby zobaczyć obserwacje i prognozy pogody.

Aby zmienić mapę: kliknij na zielony przycisk z czarnym krzyżykiem, aby powiększyć; na zielony przycisk z myślnikiem, aby pomniejszyć; na zielone strzałki, aby przejść do map sąsiednich.


METAR-TAF: